Time;durP1;ratioP1;P1;durP2;ratioP2;P2;SDS_P1;SDS_P2;PMS_P1;PMS_P2;Temp;Humidity;BMP_temperature;BMP_pressure;BME280_temperature;BME280_humidity;BME280_pressure;Samples;Min_cycle;Max_cycle;Signal;HPM_P1;HPM_P2
2021/07/04 00:00:14;;;;;;;;;;;;;;;24.18;50.16;100920.31;6207976;22;97065;-89
2021/07/04 00:02:42;;;;;;;;;;;;;;;24.23;50.00;100918.09;6202066;22;96788;-87
2021/07/04 00:05:10;;;;;;;;;;;;;;;24.41;49.05;100914.75;6203894;22;98394;-89
2021/07/04 00:07:41;;;;;;;;;;;;;;;24.49;48.80;100917.56;6200896;22;98359;-88
2021/07/04 00:10:11;;;;;;;;;;;;;;;24.38;49.03;100915.84;6173130;22;96644;-87
2021/07/04 00:12:38;;;;;;;;;;;;;;;24.55;48.57;100917.88;6201197;22;96636;-90
2021/07/04 00:15:06;;;;;;;;;;;;;;;24.42;49.53;100916.41;6198866;22;100213;-87
2021/07/04 00:17:34;;;;;;;;;;;;;;;24.53;49.49;100914.47;6209797;22;96477;-89
2021/07/04 00:20:00;;;;;;;;;;;;;;;24.26;50.55;100919.66;6184626;22;96701;-88
2021/07/04 00:22:27;;;;;;;;;;;;;;;24.32;50.60;100905.63;6208020;22;96443;-89
2021/07/04 00:24:58;;;;;;;;;;;;;;;24.45;50.32;100921.56;6210017;22;99174;-88
2021/07/04 00:27:33;;;;;;;;;;;;;;;24.39;50.06;100908.63;6209203;22;99655;-88
2021/07/04 00:30:00;;;;;;;;;;;;;;;24.14;51.27;100913.50;6209053;22;96403;-86
2021/07/04 00:32:26;;;;;;;;;;;;;;;24.29;50.54;100910.41;6210772;22;96946;-86
2021/07/04 00:34:53;;;;;;;;;;;;;;;24.40;50.60;100910.31;6214670;22;98988;-86
2021/07/04 00:37:19;;;;;;;;;;;;;;;24.41;50.68;100904.78;6214848;22;98930;-87
2021/07/04 00:42:29;;;;;;;;;;;;;;;24.32;50.81;100899.34;6215503;22;96031;-88
2021/07/04 00:44:56;;;;;;;;;;;;;;;24.12;51.55;100904.69;6215290;22;98846;-85
2021/07/04 00:47:23;;;;;;;;;;;;;;;24.31;51.00;100903.03;6216574;22;96536;-84
2021/07/04 00:52:32;;;;;;;;;;;;;;;24.30;50.52;100907.59;6215629;22;96030;-85
2021/07/04 01:05:52;;;;;;;;;;;;;;;24.33;50.47;100896.53;6214429;22;99111;-84
2021/07/04 01:08:19;;;;;;;;;;;;;;;24.26;51.09;100898.06;6216041;22;98058;-84
2021/07/04 01:13:42;;;;;;;;;;;;;;;24.50;50.38;100885.03;6215764;22;96383;-84
2021/07/04 01:27:27;;;;;;;;;;;;;;;24.11;51.58;100886.75;6184314;22;98535;-84
2021/07/04 01:37:57;;;;;;;;;;;;;;;24.20;52.33;100888.69;6184778;22;97454;-85
2021/07/04 01:40:35;;;;;;;;;;;;;;;24.09;52.82;100887.91;6185679;22;100491;-85
2021/07/04 01:43:05;;;;;;;;;;;;;;;24.05;52.68;100881.06;6174884;22;96441;-90
2021/07/04 01:48:20;;;;;;;;;;;;;;;23.90;53.18;100880.59;6180805;22;96612;-91
2021/07/04 01:53:30;;;;;;;;;;;;;;;23.88;53.12;100879.03;6173143;22;96659;-93
2021/07/04 01:58:42;;;;;;;;;;;;;;;24.10;52.78;100878.78;6170927;22;100153;-90
2021/07/04 02:03:51;;;;;;;;;;;;;;;23.98;53.25;100875.34;6172068;22;96520;-91
2021/07/04 02:06:25;;;;;;;;;;;;;;;23.97;53.34;100878.19;6174818;22;97016;-90
2021/07/04 02:08:53;;;;;;;;;;;;;;;24.05;53.03;100871.13;6175683;22;100268;-90
2021/07/04 02:11:22;;;;;;;;;;;;;;;24.02;53.46;100878.66;6172676;22;98607;-91
2021/07/04 02:19:14;;;;;;;;;;;;;;;23.93;54.16;100887.56;6180416;22;96764;-86
2021/07/04 02:21:41;;;;;;;;;;;;;;;24.01;53.96;100887.75;6176989;22;99127;-90
2021/07/04 02:24:17;;;;;;;;;;;;;;;24.03;54.16;100883.88;6181971;22;96475;-90
2021/07/04 02:27:00;;;;;;;;;;;;;;;24.41;52.87;100882.31;6180036;22;96895;-88
2021/07/04 02:29:33;;;;;;;;;;;;;;;24.30;53.12;100877.03;6182708;22;98685;-90
2021/07/04 02:34:40;;;;;;;;;;;;;;;23.94;54.00;100894.66;6172176;22;96596;-90
2021/07/04 02:39:55;;;;;;;;;;;;;;;24.05;53.86;100890.03;6181006;22;98902;-91
2021/07/04 02:45:04;;;;;;;;;;;;;;;23.98;54.33;100890.69;6182863;22;96231;-90
2021/07/04 02:47:44;;;;;;;;;;;;;;;24.05;54.19;100889.16;6181107;22;96566;-92
2021/07/04 02:58:22;;;;;;;;;;;;;;;24.08;54.16;100892.47;6173200;22;96483;-90
2021/07/04 03:08:55;;;;;;;;;;;;;;;23.84;54.48;100884.69;6172824;22;96622;-90
2021/07/04 03:16:52;;;;;;;;;;;;;;;23.89;53.96;100887.00;6167784;22;97102;-90
2021/07/04 03:19:18;;;;;;;;;;;;;;;23.82;54.62;100889.38;6170457;22;96841;-89
2021/07/04 03:21:46;;;;;;;;;;;;;;;23.80;54.54;100887.81;6170352;22;99030;-90
2021/07/04 03:24:13;;;;;;;;;;;;;;;23.70;55.31;100882.34;6170987;22;96937;-89
2021/07/04 03:26:46;;;;;;;;;;;;;;;23.87;54.96;100885.41;6172287;22;96635;-90
2021/07/04 03:32:10;;;;;;;;;;;;;;;23.81;54.87;100884.97;6169899;22;98957;-90
2021/07/04 03:34:39;;;;;;;;;;;;;;;23.83;55.11;100882.97;6163125;22;101566;-91
2021/07/04 03:39:47;;;;;;;;;;;;;;;23.76;54.89;100880.97;6171422;22;96407;-93
2021/07/04 03:42:15;;;;;;;;;;;;;;;23.70;55.06;100885.03;6168627;22;99718;-91
2021/07/04 03:44:52;;;;;;;;;;;;;;;23.66;55.61;100889.00;6173176;22;99702;-89
2021/07/04 03:47:23;;;;;;;;;;;;;;;23.92;54.41;100891.25;6173736;22;96615;-89
2021/07/04 03:49:54;;;;;;;;;;;;;;;23.73;54.97;100886.63;6168061;22;97442;-90
2021/07/04 03:52:27;;;;;;;;;;;;;;;23.56;55.84;100884.56;6169390;22;98319;-90
2021/07/04 03:54:56;;;;;;;;;;;;;;;23.73;55.60;100892.03;6167570;22;98492;-89
2021/07/04 03:57:23;;;;;;;;;;;;;;;23.93;54.95;100888.41;6174752;22;96661;-89
2021/07/04 03:59:51;;;;;;;;;;;;;;;23.88;55.05;100890.69;6177099;22;96593;-89
2021/07/04 04:02:18;;;;;;;;;;;;;;;23.88;54.99;100885.28;6158518;22;97797;-89
2021/07/04 04:04:51;;;;;;;;;;;;;;;23.89;54.69;100884.28;6169418;22;100015;-89
2021/07/04 04:10:10;;;;;;;;;;;;;;;23.72;55.60;100884.91;6167765;22;96675;-90
2021/07/04 04:12:44;;;;;;;;;;;;;;;23.93;55.18;100892.97;6174583;22;98313;-90
2021/07/04 04:15:12;;;;;;;;;;;;;;;23.87;55.48;100888.09;6171166;22;99412;-90
2021/07/04 04:17:43;;;;;;;;;;;;;;;23.88;55.24;100882.59;6145777;22;96772;-87
2021/07/04 04:20:14;;;;;;;;;;;;;;;23.69;55.70;100885.19;6154716;22;95985;-88
2021/07/04 04:22:45;;;;;;;;;;;;;;;23.87;55.31;100894.38;6153168;22;99182;-89
2021/07/04 04:25:15;;;;;;;;;;;;;;;23.82;55.93;100893.94;6140106;23;99130;-88
2021/07/04 04:27:43;;;;;;;;;;;;;;;24.13;54.62;100887.50;6135952;23;97016;-87
2021/07/04 04:32:52;;;;;;;;;;;;;;;24.14;54.37;100886.50;6143401;23;99615;-90
2021/07/04 04:35:21;;;;;;;;;;;;;;;24.37;53.64;100889.84;6141807;23;98558;-90
2021/07/04 04:40:35;;;;;;;;;;;;;;;24.15;54.33;100890.91;6146625;23;96636;-89
2021/07/04 04:43:04;;;;;;;;;;;;;;;24.49;53.50;100901.38;6140970;23;100173;-90
2021/07/04 04:45:33;;;;;;;;;;;;;;;24.25;54.15;100896.34;6139780;23;98594;-91
2021/07/04 04:50:46;;;;;;;;;;;;;;;24.17;54.85;100901.56;6150098;22;96542;-88
2021/07/04 04:53:17;;;;;;;;;;;;;;;24.18;55.08;100892.47;6142119;23;100798;-89
2021/07/04 04:55:51;;;;;;;;;;;;;;;24.03;55.55;100899.22;6150067;22;98849;-90
2021/07/04 04:58:18;;;;;;;;;;;;;;;23.83;56.28;100892.91;6145130;23;96931;-88
2021/07/04 05:00:46;;;;;;;;;;;;;;;24.09;55.94;100899.53;6138884;22;96570;-89
2021/07/04 05:03:14;;;;;;;;;;;;;;;24.08;55.41;100897.84;6139836;23;98979;-89
2021/07/04 05:05:41;;;;;;;;;;;;;;;23.95;55.65;100897.25;6140648;23;98593;-88
2021/07/04 05:08:07;;;;;;;;;;;;;;;23.88;56.08;100896.06;6139834;23;97079;-89
2021/07/04 05:10:36;;;;;;;;;;;;;;;24.00;55.76;100891.44;6140977;22;96782;-89
2021/07/04 05:13:10;;;;;;;;;;;;;;;24.25;54.81;100890.97;6140783;22;100302;-89
2021/07/04 05:15:37;;;;;;;;;;;;;;;24.47;54.16;100887.16;6146063;23;100048;-89
2021/07/04 05:18:06;;;;;;;;;;;;;;;24.71;53.35;100906.53;6151334;22;96937;-90
2021/07/04 05:20:34;;;;;;;;;;;;;;;24.75;52.97;100897.13;6153116;22;96488;-88
2021/07/04 05:23:01;;;;;;;;;;;;;;;24.36;53.51;100898.94;6153602;22;99073;-88
2021/07/04 05:25:30;;;;;;;;;;;;;;;24.46;53.45;100901.66;6154615;22;96724;-88
2021/07/04 05:27:59;;;;;;;;;;;;;;;24.49;53.80;100902.22;6150098;22;96556;-89
2021/07/04 05:30:27;;;;;;;;;;;;;;;24.40;54.04;100904.91;6148784;23;96919;-89
2021/07/04 05:32:58;;;;;;;;;;;;;;;24.69;53.52;100899.53;6144814;23;97591;-90
2021/07/04 05:35:27;;;;;;;;;;;;;;;24.75;53.22;100897.13;6143010;23;98776;-89
2021/07/04 05:40:29;;;;;;;;;;;;;;;24.91;52.54;100908.28;6199383;22;96954;-91
2021/07/04 05:45:56;;;;;;;;;;;;;;;25.61;50.10;100908.88;6212376;22;99759;-90
2021/07/04 05:48:40;;;;;;;;;;;;;;;26.09;48.45;100908.69;6205992;22;96420;-94
2021/07/04 05:53:54;;;;;;;;;;;;;;;26.22;46.03;100903.78;6202462;22;98599;-91
2021/07/04 05:56:26;;;;;;;;;;;;;;;26.32;45.54;100901.88;6179923;22;98617;-91
2021/07/04 05:58:58;;;;;;;;;;;;;;;26.74;43.66;100907.59;6177622;22;96600;-91
2021/07/04 06:04:06;;;;;;;;;;;;;;;27.04;41.01;100911.81;6199958;22;96789;-90
2021/07/04 06:06:52;;;;;;;;;;;;;;;27.33;40.59;100914.22;6174618;22;98745;-89
2021/07/04 06:12:16;;;;;;;;;;;;;;;27.72;37.79;100909.25;6206037;22;96580;-90
2021/07/04 06:20:04;;;;;;;;;;;;;;;27.38;39.37;100910.03;6240902;22;96414;-91
2021/07/04 06:25:16;;;;;;;;;;;;;;;27.23;38.81;100908.06;6244789;22;96755;-91
2021/07/04 06:27:57;;;;;;;;;;;;;;;27.52;38.43;100911.34;6240859;22;98825;-91
2021/07/04 06:30:30;;;;;;;;;;;;;;;27.87;38.03;100904.94;6246726;22;96464;-90
2021/07/04 06:32:57;;;;;;;;;;;;;;;27.95;37.89;100906.84;6221311;22;95914;-91
2021/07/04 06:38:12;;;;;;;;;;;;;;;27.77;38.54;100909.63;6242306;22;96382;-91
2021/07/04 06:40:41;;;;;;;;;;;;;;;27.69;38.64;100904.16;6242523;22;96522;-91
2021/07/04 06:43:07;;;;;;;;;;;;;;;27.97;37.88;100908.38;6239022;22;96404;-90
2021/07/04 06:45:46;;;;;;;;;;;;;;;27.79;37.65;100899.47;6237669;22;99256;-91
2021/07/04 06:48:13;;;;;;;;;;;;;;;27.70;37.83;100895.84;6236757;22;98623;-91
2021/07/04 06:50:43;;;;;;;;;;;;;;;27.85;36.69;100892.53;6238690;22;96560;-92
2021/07/04 06:55:54;;;;;;;;;;;;;;;27.25;37.19;100893.31;6231389;22;99792;-89
2021/07/04 06:58:25;;;;;;;;;;;;;;;27.11;38.43;100893.88;6237807;22;98353;-90
2021/07/04 07:01:08;;;;;;;;;;;;;;;27.70;37.56;100889.56;6211552;22;96594;-91
2021/07/04 07:12:34;;;;;;;;;;;;;;;28.92;34.59;100893.56;6240943;22;96544;-91
2021/07/04 07:15:03;;;;;;;;;;;;;;;29.21;33.45;100884.91;6215848;22;96790;-91
2021/07/04 07:20:17;;;;;;;;;;;;;;;29.38;33.48;100877.59;6220374;22;98888;-90
2021/07/04 07:22:46;;;;;;;;;;;;;;;29.45;33.56;100884.03;6245721;22;96702;-91
2021/07/04 07:25:13;;;;;;;;;;;;;;;29.59;30.64;100875.16;6239817;22;100037;-89
2021/07/04 07:27:51;;;;;;;;;;;;;;;29.46;30.12;100877.56;6250320;22;97479;-91
2021/07/04 07:42:07;;;;;;;;;;;;;;;30.33;28.67;100860.19;6265582;22;98668;-92
2021/07/04 07:50:16;;;;;;;;;;;;;;;29.67;28.61;100854.19;6264362;22;99871;-92
2021/07/04 07:58:11;;;;;;;;;;;;;;;29.99;28.44;100860.56;6268206;22;96802;-92
2021/07/04 08:06:06;;;;;;;;;;;;;;;30.34;28.47;100853.72;6268022;22;96421;-90
2021/07/04 08:11:30;;;;;;;;;;;;;;;30.86;27.23;100842.97;6269083;22;96575;-93
2021/07/04 08:19:19;;;;;;;;;;;;;;;29.23;30.09;100836.56;6269166;22;96136;-91
2021/07/04 08:29:51;;;;;;;;;;;;;;;29.23;29.50;100829.25;6270308;22;96551;-94
2021/07/04 08:32:18;;;;;;;;;;;;;;;29.34;29.15;100833.53;6268890;22;98411;-93
2021/07/04 08:34:45;;;;;;;;;;;;;;;29.54;28.65;100826.66;6268508;22;98868;-94
2021/07/04 08:37:16;;;;;;;;;;;;;;;29.74;28.61;100821.66;6270004;22;96210;-92
2021/07/04 08:42:33;;;;;;;;;;;;;;;30.24;28.32;100815.81;6269309;22;96842;-93
2021/07/04 08:47:41;;;;;;;;;;;;;;;30.36;27.57;100802.63;6273753;22;96003;-91
2021/07/04 08:58:23;;;;;;;;;;;;;;;30.91;27.29;100802.38;6260730;22;96574;-90
2021/07/04 09:03:51;;;;;;;;;;;;;;;31.73;26.43;100797.75;6267281;22;98830;-92
2021/07/04 09:06:36;;;;;;;;;;;;;;;31.27;27.05;100797.06;6275897;22;98034;-92
2021/07/04 09:09:19;;;;;;;;;;;;;;;30.87;26.83;100792.84;6269277;22;95764;-93
2021/07/04 09:12:02;;;;;;;;;;;;;;;30.61;27.17;100790.50;6269758;22;96530;-93
2021/07/04 09:14:44;;;;;;;;;;;;;;;31.16;26.61;100792.94;6241614;22;99407;-90
2021/07/04 09:28:07;;;;;;;;;;;;;;;31.62;26.09;100784.59;6265762;22;96609;-92
2021/07/04 09:33:21;;;;;;;;;;;;;;;30.67;27.53;100775.28;6269351;22;96473;-92
2021/07/04 09:35:56;;;;;;;;;;;;;;;30.34;28.00;100778.25;6271836;22;99973;-91
2021/07/04 09:38:28;;;;;;;;;;;;;;;30.74;27.38;100779.84;6271775;22;98708;-92
2021/07/04 09:43:40;;;;;;;;;;;;;;;30.09;27.55;100774.00;6263501;22;96467;-92
2021/07/04 10:04:26;;;;;;;;;;;;;;;30.10;29.20;100759.34;6174841;22;100015;-92
2021/07/04 10:09:42;;;;;;;;;;;;;;;30.85;28.94;100756.75;6168621;22;98698;-90
2021/07/04 10:12:09;;;;;;;;;;;;;;;31.32;28.46;100755.56;6172016;22;96663;-91
2021/07/04 10:14:56;;;;;;;;;;;;;;;31.34;27.93;100757.06;6179459;22;96674;-91
2021/07/04 10:17:50;;;;;;;;;;;;;;;31.53;28.40;100752.91;6180975;22;100902;-94
2021/07/04 10:42:51;;;;;;;;;;;;;;;32.50;25.23;100728.78;6182612;22;96203;-91
2021/07/04 10:45:35;;;;;;;;;;;;;;;32.50;25.97;100732.38;6183657;22;96093;-91
2021/07/04 10:51:12;;;;;;;;;;;;;;;33.10;24.98;100722.75;6183385;22;98862;-92
2021/07/04 10:53:42;;;;;;;;;;;;;;;32.96;25.75;100712.78;6183334;22;98900;-87
2021/07/04 10:56:25;;;;;;;;;;;;;;;32.02;26.21;100713.00;6185296;22;97759;-90
2021/07/04 10:59:13;;;;;;;;;;;;;;;32.20;26.97;100711.72;6183717;22;96270;-90
2021/07/04 11:02:00;;;;;;;;;;;;;;;32.18;26.99;100713.78;6183838;22;99055;-89
2021/07/04 11:04:48;;;;;;;;;;;;;;;32.41;26.59;100719.91;6184313;22;96772;-89
2021/07/04 11:07:15;;;;;;;;;;;;;;;32.27;27.21;100718.09;6183851;22;97198;-88
2021/07/04 11:10:07;;;;;;;;;;;;;;;32.32;25.57;100705.53;6185048;22;95933;-87
2021/07/04 11:12:36;;;;;;;;;;;;;;;32.33;26.46;100712.69;6184110;22;100384;-88
2021/07/04 11:15:23;;;;;;;;;;;;;;;32.50;25.54;100713.22;6184349;22;98813;-87
2021/07/04 11:26:23;;;;;;;;;;;;;;;31.81;26.62;100701.19;6184433;22;98588;-91
2021/07/04 12:05:32;;;;;;;;;;;;;;;33.17;25.81;100677.94;6181519;22;96609;-94
2021/07/04 12:10:58;;;;;;;;;;;;;;;32.59;26.46;100678.38;6026287;22;100394;31
2021/07/04 12:50:01;;;;;;;;;;;;;;;32.02;26.66;100638.34;6159471;22;96386;-92
2021/07/04 12:55:57;;;;;;;;;;;;;;;32.15;26.14;100632.19;6179508;22;99657;-94
2021/07/04 13:09:16;;;;;;;;;;;;;;;32.00;26.83;100622.16;6177531;22;96641;-93
2021/07/04 13:23:26;;;;;;;;;;;;;;;31.94;26.90;100613.88;6159636;22;95970;-90
2021/07/04 14:25:34;;;;;;;;;;;;;;;42.84;13.72;100575.75;6184505;22;95977;-92
2021/07/04 14:38:37;;;;;;;;;;;;;;;46.67;10.90;100557.25;6172459;22;100437;-92
2021/07/04 14:54:44;;;;;;;;;;;;;;;42.83;13.44;100543.50;6177549;22;98611;-86
2021/07/04 15:08:07;;;;;;;;;;;;;;;37.93;18.43;100539.72;6179191;22;96994;-88
2021/07/04 15:16:23;;;;;;;;;;;;;;;41.82;14.54;100537.22;6161199;22;96678;-88
2021/07/04 15:21:33;;;;;;;;;;;;;;;36.28;20.52;100542.72;6174541;22;96967;-86
2021/07/04 15:26:51;;;;;;;;;;;;;;;35.53;22.01;100528.06;6177934;22;98649;-87
2021/07/04 15:29:25;;;;;;;;;;;;;;;35.35;22.39;100521.63;6174891;22;96555;-83
2021/07/04 15:31:51;;;;;;;;;;;;;;;34.56;23.64;100519.22;6175155;22;96691;-87
2021/07/04 15:34:20;;;;;;;;;;;;;;;33.14;24.23;100511.38;6175617;22;98340;-87
2021/07/04 15:36:48;;;;;;;;;;;;;;;33.06;24.33;100505.25;6174090;22;96793;-86
2021/07/04 15:42:17;;;;;;;;;;;;;;;33.88;23.39;100507.69;6177471;22;96577;-86
2021/07/04 15:44:47;;;;;;;;;;;;;;;33.37;24.39;100510.19;6177453;22;96812;-86
2021/07/04 15:47:18;;;;;;;;;;;;;;;33.10;24.69;100510.09;6153723;22;96546;-88
2021/07/04 15:50:03;;;;;;;;;;;;;;;33.62;24.32;100498.41;6183977;22;96382;-87
2021/07/04 16:01:12;;;;;;;;;;;;;;;32.81;25.34;100486.66;6183654;22;96436;-87
2021/07/04 16:11:48;;;;;;;;;;;;;;;32.35;25.37;100463.69;6177023;22;96666;-83
2021/07/04 16:14:48;;;;;;;;;;;;;;;31.77;26.40;100465.78;6173975;22;96684;-91
2021/07/04 16:17:21;;;;;;;;;;;;;;;31.56;26.59;100468.53;6173989;22;100512;-89
2021/07/04 16:25:33;;;;;;;;;;;;;;;32.02;26.22;100452.53;6175147;22;96433;-87
2021/07/04 16:38:36;;;;;;;;;;;;;;;32.88;25.68;100451.09;6161097;22;96483;-89
2021/07/04 16:47:01;;;;;;;;;;;;;;;32.99;24.71;100455.09;6175153;22;96712;-89
2021/07/04 16:49:29;;;;;;;;;;;;;;;32.98;25.19;100457.00;6172529;22;99064;-87
2021/07/04 16:52:04;;;;;;;;;;;;;;;33.04;26.06;100453.44;6142209;22;97925;-87
2021/07/04 16:54:31;;;;;;;;;;;;;;;32.45;26.12;100453.19;6168134;22;96531;-85
2021/07/04 16:56:57;;;;;;;;;;;;;;;31.76;27.19;100452.34;6168519;22;96844;-87
2021/07/04 16:59:28;;;;;;;;;;;;;;;31.58;27.60;100453.63;6165875;22;96964;-87
2021/07/04 17:01:56;;;;;;;;;;;;;;;32.13;27.26;100448.38;6165583;22;100906;-87
2021/07/04 17:04:23;;;;;;;;;;;;;;;31.46;27.13;100463.41;6165508;22;96786;-85
2021/07/04 17:06:50;;;;;;;;;;;;;;;31.16;27.42;100459.97;6163974;22;96604;-85
2021/07/04 17:09:22;;;;;;;;;;;;;;;30.96;28.05;100453.44;6167221;22;101465;-85
2021/07/04 17:11:49;;;;;;;;;;;;;;;30.84;28.95;100454.97;6163795;22;100400;-85
2021/07/04 17:14:16;;;;;;;;;;;;;;;31.02;27.89;100454.53;6165660;22;96844;-86
2021/07/04 17:16:44;;;;;;;;;;;;;;;31.06;28.09;100467.63;6164716;22;96583;-86
2021/07/04 17:19:13;;;;;;;;;;;;;;;30.81;28.25;100467.09;6164735;22;98934;-86
2021/07/04 17:21:40;;;;;;;;;;;;;;;31.13;27.83;100467.69;6138038;22;101318;-85
2021/07/04 17:24:08;;;;;;;;;;;;;;;31.05;28.08;100465.09;6163862;22;97173;-86
2021/07/04 17:26:41;;;;;;;;;;;;;;;31.04;28.73;100464.22;6166697;22;96799;-84
2021/07/04 17:29:08;;;;;;;;;;;;;;;30.79;29.08;100462.88;6176775;22;98705;-87
2021/07/04 17:31:35;;;;;;;;;;;;;;;30.68;28.89;100468.81;6176967;22;96441;-88
2021/07/04 17:34:02;;;;;;;;;;;;;;;30.66;28.86;100466.28;6180052;22;96434;-86
2021/07/04 17:36:47;;;;;;;;;;;;;;;30.71;28.69;100463.84;6180291;22;96077;-87
2021/07/04 17:39:17;;;;;;;;;;;;;;;31.10;28.48;100471.66;6177826;22;99932;-89
2021/07/04 17:42:01;;;;;;;;;;;;;;;30.93;28.21;100469.31;6179677;22;96490;-89
2021/07/04 17:44:39;;;;;;;;;;;;;;;31.11;28.22;100477.97;6179215;22;96520;-91
2021/07/04 17:49:49;;;;;;;;;;;;;;;31.07;28.01;100474.78;6180527;22;96514;-88
2021/07/04 17:54:57;;;;;;;;;;;;;;;30.56;28.67;100473.09;6181718;22;96412;-90
2021/07/04 17:57:31;;;;;;;;;;;;;;;30.68;28.29;100468.81;6181234;22;96464;-89
2021/07/04 18:02:36;;;;;;;;;;;;;;;30.33;28.78;100465.81;6183802;22;95949;-88
2021/07/04 18:05:04;;;;;;;;;;;;;;;30.07;29.43;100465.44;6181885;22;96493;-90
2021/07/04 18:07:31;;;;;;;;;;;;;;;30.67;28.63;100467.13;6182290;22;96839;-90
2021/07/04 18:10:08;;;;;;;;;;;;;;;30.70;28.46;100461.31;6182131;22;97795;-89
2021/07/04 18:15:18;;;;;;;;;;;;;;;30.65;28.58;100467.34;6182816;22;95994;-89
2021/07/04 18:36:36;;;;;;;;;;;;;;;30.15;28.81;100470.81;6181620;22;96148;-90
2021/07/04 18:39:23;;;;;;;;;;;;;;;30.37;29.03;100471.75;6167466;22;98986;-89
2021/07/04 18:41:52;;;;;;;;;;;;;;;30.14;29.06;100476.44;6182337;22;96756;-90
2021/07/04 18:44:23;;;;;;;;;;;;;;;30.25;29.19;100476.84;6176890;22;97153;-90
2021/07/04 18:47:03;;;;;;;;;;;;;;;30.24;29.31;100474.31;6174740;22;96629;-90
2021/07/04 18:49:30;;;;;;;;;;;;;;;30.41;29.81;100479.34;6182138;22;96416;-91
2021/07/04 18:52:01;;;;;;;;;;;;;;;30.43;29.76;100482.75;6155911;22;97572;-90
2021/07/04 18:54:46;;;;;;;;;;;;;;;30.20;30.58;100482.00;6182740;22;96494;-90
2021/07/04 19:03:20;;;;;;;;;;;;;;;29.71;31.40;100493.38;6149335;22;99083;-86
2021/07/04 19:19:17;;;;;;;;;;;;;;;29.43;34.62;100508.56;6151753;22;100143;-89
2021/07/04 19:21:46;;;;;;;;;;;;;;;29.28;32.27;100511.19;6183551;22;96308;-86
2021/07/04 19:29:35;;;;;;;;;;;;;;;28.93;32.01;100520.78;6181804;22;96336;-87
2021/07/04 19:32:04;;;;;;;;;;;;;;;29.05;31.67;100518.50;6180564;22;96443;-87
2021/07/04 19:34:53;;;;;;;;;;;;;;;28.67;32.23;100524.78;6182277;22;98131;-89
2021/07/04 19:37:47;;;;;;;;;;;;;;;28.55;32.57;100521.63;6171247;22;99010;-87
2021/07/04 19:53:48;;;;;;;;;;;;;;;28.85;31.99;100526.25;6182718;22;96613;-88
2021/07/04 19:59:23;;;;;;;;;;;;;;;28.57;32.36;100525.00;6180810;22;98289;-86
2021/07/04 20:01:56;;;;;;;;;;;;;;;28.54;32.71;100530.78;6157031;22;96480;-87
2021/07/04 20:04:26;;;;;;;;;;;;;;;28.31;32.63;100525.25;6182967;22;96614;-86
2021/07/04 20:07:00;;;;;;;;;;;;;;;28.67;32.26;100530.22;6181451;22;96801;-88
2021/07/04 20:09:36;;;;;;;;;;;;;;;28.49;32.65;100530.44;6182664;22;98217;-89
2021/07/04 20:15:14;;;;;;;;;;;;;;;28.78;31.90;100533.44;6181301;22;95955;-89
2021/07/04 20:17:43;;;;;;;;;;;;;;;28.32;32.25;100531.53;6178572;22;99324;-89
2021/07/04 20:20:12;;;;;;;;;;;;;;;28.52;32.07;100533.69;6180800;22;96802;-85
2021/07/04 20:22:41;;;;;;;;;;;;;;;28.25;32.45;100530.53;6181153;22;96631;-89
2021/07/04 20:25:38;;;;;;;;;;;;;;;28.28;32.58;100533.75;6180460;22;96721;-87
2021/07/04 20:36:43;;;;;;;;;;;;;;;28.61;32.35;100542.66;6175970;22;96162;-89
2021/07/04 20:39:13;;;;;;;;;;;;;;;28.57;32.32;100532.28;6179227;22;98747;-87
2021/07/04 20:41:41;;;;;;;;;;;;;;;28.81;32.05;100538.53;6183907;22;96412;-88
2021/07/04 20:44:11;;;;;;;;;;;;;;;28.71;32.08;100537.84;6179896;22;96620;-89
2021/07/04 20:46:50;;;;;;;;;;;;;;;28.65;32.43;100532.25;6184777;22;95902;-87
2021/07/04 20:49:17;;;;;;;;;;;;;;;28.53;32.40;100529.09;6184326;22;98306;-88
2021/07/04 20:51:45;;;;;;;;;;;;;;;28.57;32.67;100533.13;6157998;22;96369;-84
2021/07/04 20:54:13;;;;;;;;;;;;;;;28.74;32.91;100532.09;6178985;22;96484;-86
2021/07/04 20:56:43;;;;;;;;;;;;;;;28.83;32.64;100535.59;6184264;22;96605;-88
2021/07/04 20:59:10;;;;;;;;;;;;;;;28.52;33.62;100528.25;6179446;22;99376;-85
2021/07/04 21:04:25;;;;;;;;;;;;;;;28.67;32.94;100532.94;6184790;22;96487;-84
2021/07/04 21:10:08;;;;;;;;;;;;;;;28.54;33.52;100536.22;6182541;22;98612;-88
2021/07/04 21:12:39;;;;;;;;;;;;;;;28.39;34.86;100536.09;6182561;22;99128;-87
2021/07/04 21:15:07;;;;;;;;;;;;;;;28.28;34.81;100535.63;6185911;22;96020;-83
2021/07/04 21:17:35;;;;;;;;;;;;;;;28.32;34.75;100536.97;6155755;22;98123;-86
2021/07/04 21:20:13;;;;;;;;;;;;;;;28.18;35.12;100526.81;6175589;22;97123;-87
2021/07/04 21:23:07;;;;;;;;;;;;;;;28.07;35.38;100538.84;6185678;22;97645;-84
2021/07/04 21:44:39;;;;;;;;;;;;;;;27.78;37.37;100533.94;6123350;22;99762;-86
2021/07/04 21:47:20;;;;;;;;;;;;;;;27.99;36.90;100536.13;6147300;22;96709;-88
2021/07/04 21:52:30;;;;;;;;;;;;;;;28.18;36.41;100540.38;6165786;22;98878;-87
2021/07/04 21:57:51;;;;;;;;;;;;;;;27.84;37.11;100530.56;6164612;22;96696;-86
2021/07/04 22:00:38;;;;;;;;;;;;;;;28.00;36.85;100530.53;6165861;22;96643;-86
2021/07/04 22:03:07;;;;;;;;;;;;;;;28.08;36.45;100527.81;6166721;22;98433;-84
2021/07/04 22:05:37;;;;;;;;;;;;;;;27.96;35.51;100529.19;6167726;22;98157;-87
2021/07/04 22:08:04;;;;;;;;;;;;;;;27.92;35.31;100527.84;6147739;22;96786;-87
2021/07/04 22:13:13;;;;;;;;;;;;;;;27.95;35.69;100523.94;6170449;22;98781;-85
2021/07/04 22:15:40;;;;;;;;;;;;;;;27.90;35.76;100524.44;6142454;22;97447;-86
2021/07/04 22:18:18;;;;;;;;;;;;;;;28.02;35.54;100522.25;6142818;22;96851;-86
2021/07/04 22:20:45;;;;;;;;;;;;;;;27.81;35.63;100527.34;6168976;22;96609;-85
2021/07/04 22:23:14;;;;;;;;;;;;;;;27.69;37.54;100532.28;6166050;22;98365;-84
2021/07/04 22:25:41;;;;;;;;;;;;;;;27.75;38.07;100523.44;6166611;22;100391;-86
2021/07/04 22:28:09;;;;;;;;;;;;;;;27.76;37.81;100523.25;6171775;22;96664;-86
2021/07/04 22:30:40;;;;;;;;;;;;;;;27.97;36.71;100522.72;6175429;22;96712;-87
2021/07/04 22:33:11;;;;;;;;;;;;;;;27.74;36.96;100527.19;6174656;22;97726;-86
2021/07/04 22:38:27;;;;;;;;;;;;;;;27.65;36.19;100520.03;6174135;22;96514;-87
2021/07/04 22:40:54;;;;;;;;;;;;;;;27.57;36.01;100525.50;6184129;22;95786;-86
2021/07/04 22:43:23;;;;;;;;;;;;;;;27.64;35.97;100529.19;6170932;22;99128;-87
2021/07/04 22:45:49;;;;;;;;;;;;;;;27.66;34.96;100525.31;6167970;22;97995;-86
2021/07/04 22:48:18;;;;;;;;;;;;;;;27.16;36.36;100521.84;6140549;22;96928;-85
2021/07/04 22:50:47;;;;;;;;;;;;;;;27.47;35.38;100524.75;6165978;22;96826;-84
2021/07/04 22:53:14;;;;;;;;;;;;;;;27.56;35.29;100516.50;6165116;22;97718;-83
2021/07/04 22:55:41;;;;;;;;;;;;;;;27.72;35.25;100519.19;6165107;22;97971;-84
2021/07/04 22:58:09;;;;;;;;;;;;;;;27.49;35.01;100522.72;6163149;22;97025;-85
2021/07/04 23:00:45;;;;;;;;;;;;;;;27.65;35.25;100518.19;6163044;22;96682;-85
2021/07/04 23:03:14;;;;;;;;;;;;;;;27.63;35.38;100516.66;6163242;22;99216;-84
2021/07/04 23:05:58;;;;;;;;;;;;;;;27.71;35.53;100527.50;6165305;22;98008;-85
2021/07/04 23:08:27;;;;;;;;;;;;;;;27.76;35.69;100517.81;6162281;22;97055;-85
2021/07/04 23:11:01;;;;;;;;;;;;;;;27.45;35.63;100521.34;6163546;22;96668;-84
2021/07/04 23:13:28;;;;;;;;;;;;;;;27.58;35.43;100514.44;6160193;22;97727;-84
2021/07/04 23:15:54;;;;;;;;;;;;;;;27.64;35.42;100521.91;6163739;22;99975;-85
2021/07/04 23:18:21;;;;;;;;;;;;;;;27.69;35.44;100516.00;6162953;22;97045;-85
2021/07/04 23:20:48;;;;;;;;;;;;;;;27.53;36.18;100511.41;6162579;22;96643;-86
2021/07/04 23:23:18;;;;;;;;;;;;;;;27.56;35.69;100507.50;6162168;22;101154;-86
2021/07/04 23:25:47;;;;;;;;;;;;;;;27.55;35.96;100505.81;6162606;22;97946;-86
2021/07/04 23:28:13;;;;;;;;;;;;;;;27.32;36.37;100517.28;6162395;22;97111;-86
2021/07/04 23:30:40;;;;;;;;;;;;;;;27.27;36.62;100507.94;6162967;22;96985;-86
2021/07/04 23:33:07;;;;;;;;;;;;;;;27.21;36.92;100505.91;6164446;22;98211;-85
2021/07/04 23:35:34;;;;;;;;;;;;;;;26.85;37.81;100503.41;6167997;22;99063;-86